createdAt,value
2019-01-18T00:00:34.985Z,78.80
2019-01-18T00:03:03.715Z,77.90
2019-01-18T00:05:32.265Z,78.80
2019-01-18T00:08:00.769Z,77.60
2019-01-18T00:10:29.393Z,77.80
2019-01-18T00:12:57.969Z,77.90
2019-01-18T00:15:27.990Z,78.00
2019-01-18T00:17:56.569Z,77.50
2019-01-18T00:20:25.045Z,78.10
2019-01-18T00:22:54.233Z,78.00
2019-01-18T00:25:22.893Z,77.90
2019-01-18T00:27:51.438Z,78.70
2019-01-18T00:30:21.865Z,78.80
2019-01-18T00:32:50.551Z,78.80
2019-01-18T00:35:19.193Z,79.00
2019-01-18T00:37:47.759Z,79.00
2019-01-18T00:40:18.688Z,78.50
2019-01-18T00:42:47.317Z,78.80
2019-01-18T00:45:17.439Z,78.40
2019-01-18T00:47:45.985Z,78.90
2019-01-18T00:50:17.097Z,78.00
2019-01-18T00:52:45.815Z,78.10
2019-01-18T00:55:14.937Z,77.80
2019-01-18T00:57:43.654Z,78.00
2019-01-18T01:00:21.275Z,77.60
2019-01-18T01:02:49.905Z,77.60
2019-01-18T01:05:18.859Z,78.00
2019-01-18T01:07:47.653Z,78.10
2019-01-18T01:10:16.441Z,77.80
2019-01-18T01:12:45.057Z,78.20
2019-01-18T01:15:17.053Z,78.50
2019-01-18T01:17:46.142Z,78.80
2019-01-18T01:20:17.430Z,78.80
2019-01-18T01:22:46.115Z,78.80
2019-01-18T01:25:15.265Z,79.60
2019-01-18T01:27:43.977Z,79.60
2019-01-18T01:30:21.825Z,79.40
2019-01-18T01:32:50.543Z,80.00
2019-01-18T01:35:19.361Z,80.40
2019-01-18T01:37:48.157Z,79.70
2019-01-18T01:40:22.509Z,79.60
2019-01-18T01:42:51.118Z,80.10
2019-01-18T01:45:19.942Z,80.30
2019-01-18T01:47:48.633Z,80.40
2019-01-18T01:50:20.125Z,80.10
2019-01-18T01:52:48.665Z,79.80
2019-01-18T01:55:17.313Z,80.10
2019-01-18T01:57:45.797Z,80.80
2019-01-18T02:00:17.453Z,80.60
2019-01-18T02:02:46.074Z,80.90
2019-01-18T02:05:14.792Z,81.10
2019-01-18T02:07:43.447Z,81.40
2019-01-18T02:10:14.365Z,81.50
2019-01-18T02:12:43.049Z,81.60
2019-01-18T02:15:14.641Z,81.80
2019-01-18T02:17:43.113Z,82.10
2019-01-18T02:20:14.621Z,83.00
2019-01-18T02:22:43.434Z,81.70
2019-01-18T02:25:12.321Z,82.10
2019-01-18T02:27:41.437Z,81.30
2019-01-18T02:30:13.395Z,81.70
2019-01-18T02:32:42.033Z,81.30
2019-01-18T02:35:10.649Z,80.30
2019-01-18T02:37:39.407Z,80.70
2019-01-18T02:40:11.066Z,81.60
2019-01-18T02:42:39.770Z,80.50
2019-01-18T02:45:11.390Z,80.30
2019-01-18T02:47:39.969Z,80.40
2019-01-18T02:50:10.662Z,80.00
2019-01-18T02:52:39.411Z,80.20
2019-01-18T02:55:09.970Z,79.70
2019-01-18T02:57:38.641Z,79.40
2019-01-18T03:00:10.614Z,79.00
2019-01-18T03:02:39.196Z,79.90
2019-01-18T03:05:10.082Z,80.50
2019-01-18T03:07:38.799Z,81.10
2019-01-18T03:10:16.281Z,80.70
2019-01-18T03:12:44.927Z,80.90
2019-01-18T03:15:13.645Z,81.60
2019-01-18T03:17:42.213Z,81.40
2019-01-18T03:20:13.111Z,81.70
2019-01-18T03:22:41.762Z,81.80
2019-01-18T03:25:15.874Z,81.80
2019-01-18T03:27:44.385Z,81.90
2019-01-18T03:30:20.484Z,81.30
2019-01-18T03:32:48.550Z,82.20
2019-01-18T03:35:21.429Z,83.10
2019-01-18T03:37:50.069Z,83.40
2019-01-18T03:40:20.159Z,82.30
2019-01-18T03:42:49.231Z,82.20
2019-01-18T03:45:19.440Z,82.20
2019-01-18T03:47:48.351Z,82.00
2019-01-18T03:50:24.893Z,82.30
2019-01-18T03:52:53.474Z,83.40
2019-01-18T03:55:22.153Z,83.10
2019-01-18T03:57:50.796Z,83.20
2019-01-18T04:00:26.374Z,82.80
2019-01-18T04:02:55.545Z,82.50
2019-01-18T04:05:24.161Z,82.70
2019-01-18T04:07:52.736Z,82.10
2019-01-18T04:10:22.521Z,81.80
2019-01-18T04:12:51.268Z,82.60
2019-01-18T04:15:22.490Z,82.40
2019-01-18T04:17:51.069Z,83.00
2019-01-18T04:20:21.257Z,82.70
2019-01-18T04:22:49.973Z,82.10
2019-01-18T04:25:20.231Z,82.60
2019-01-18T04:27:48.869Z,82.20
2019-01-18T04:30:19.804Z,81.40
2019-01-18T04:32:48.452Z,81.70
2019-01-18T04:35:17.063Z,81.30
2019-01-18T04:37:45.782Z,81.50
2019-01-18T04:40:20.189Z,81.50
2019-01-18T04:42:48.839Z,80.80
2019-01-18T04:45:17.817Z,81.60
2019-01-18T04:47:46.397Z,82.00
2019-01-18T04:50:19.958Z,83.10
2019-01-18T04:52:48.649Z,83.20
2019-01-18T04:55:17.561Z,83.00
2019-01-18T04:57:46.210Z,84.00
2019-01-18T05:00:23.385Z,84.30
2019-01-18T05:02:52.030Z,84.80
2019-01-18T05:05:20.841Z,87.10
2019-01-18T05:07:49.593Z,87.10
2019-01-18T05:10:23.681Z,87.70
2019-01-18T05:12:52.240Z,87.70
2019-01-18T05:15:23.170Z,86.50
2019-01-18T05:17:51.787Z,85.60
2019-01-18T05:20:20.366Z,84.60
2019-01-18T05:22:48.989Z,85.30
2019-01-18T05:25:17.716Z,84.80
2019-01-18T05:27:46.257Z,85.10
2019-01-18T05:30:20.449Z,86.10
2019-01-18T05:32:49.117Z,85.70
2019-01-18T05:35:17.934Z,85.30
2019-01-18T05:37:46.556Z,85.30
2019-01-18T05:40:19.833Z,85.60
2019-01-18T05:42:48.753Z,84.30
2019-01-18T05:45:22.200Z,84.60
2019-01-18T05:47:51.515Z,83.10
2019-01-18T05:50:22.327Z,84.80
2019-01-18T05:52:51.196Z,84.40
2019-01-18T05:55:19.839Z,83.60
2019-01-18T05:57:48.457Z,82.10
2019-01-18T06:00:21.583Z,81.00
2019-01-18T06:02:50.132Z,81.20
2019-01-18T06:05:20.239Z,81.40
2019-01-18T06:07:48.927Z,83.00
2019-01-18T06:10:17.546Z,82.70
2019-01-18T06:12:46.098Z,82.50
2019-01-18T06:15:14.926Z,82.40
2019-01-18T06:17:43.549Z,82.50
2019-01-18T06:20:14.872Z,84.30
2019-01-18T06:22:43.421Z,84.60
2019-01-18T06:25:12.013Z,84.90
2019-01-18T06:27:40.622Z,84.30
2019-01-18T06:30:15.195Z,83.30
2019-01-18T06:32:43.810Z,83.50
2019-01-18T06:35:13.238Z,84.00
2019-01-18T06:37:41.954Z,84.80
2019-01-18T06:40:19.438Z,85.00
2019-01-18T06:42:48.058Z,83.80
2019-01-18T06:45:22.241Z,85.00
2019-01-18T06:47:50.927Z,83.90
2019-01-18T06:50:20.441Z,84.80
2019-01-18T06:52:49.164Z,84.80
2019-01-18T06:55:17.744Z,86.30
2019-01-18T06:57:46.535Z,86.00
2019-01-18T07:00:20.894Z,85.10
2019-01-18T07:02:49.613Z,85.60
2019-01-18T07:05:18.399Z,85.90
2019-01-18T07:07:47.210Z,85.70
2019-01-18T07:10:21.863Z,85.20
2019-01-18T07:12:50.586Z,85.40
2019-01-18T07:15:20.778Z,85.30
2019-01-18T07:17:49.350Z,85.70
2019-01-18T07:20:19.739Z,86.80
2019-01-18T07:22:48.386Z,85.00
2019-01-18T07:25:22.130Z,83.90
2019-01-18T07:27:50.639Z,85.50
2019-01-18T07:30:31.357Z,84.60
2019-01-18T07:33:00.110Z,84.00
2019-01-18T07:35:28.793Z,82.70
2019-01-18T07:37:57.369Z,82.50
2019-01-18T07:40:26.186Z,82.80
2019-01-18T07:42:54.879Z,81.90
2019-01-18T07:45:28.702Z,81.80
2019-01-18T07:47:57.425Z,82.20
2019-01-18T07:50:25.977Z,82.50
2019-01-18T07:52:54.554Z,82.50
2019-01-18T07:55:23.170Z,81.70
2019-01-18T07:57:51.814Z,80.90
2019-01-18T08:00:28.246Z,81.00
2019-01-18T08:02:56.897Z,80.80
2019-01-18T08:05:27.483Z,80.70
2019-01-18T08:07:56.330Z,79.70
2019-01-18T08:10:25.141Z,80.60
2019-01-18T08:12:53.714Z,80.20
2019-01-18T08:15:24.735Z,80.90
2019-01-18T08:17:53.370Z,81.10
2019-01-18T08:20:23.992Z,80.40
2019-01-18T08:22:52.910Z,79.00
2019-01-18T08:25:21.597Z,78.50
2019-01-18T08:27:50.428Z,77.70
2019-01-18T08:30:21.516Z,78.60
2019-01-18T08:32:50.091Z,79.00
2019-01-18T08:35:20.389Z,79.70
2019-01-18T08:37:49.305Z,79.40
2019-01-18T08:40:20.767Z,79.60
2019-01-18T08:42:49.414Z,80.40
2019-01-18T08:45:23.926Z,80.30
2019-01-18T08:47:52.654Z,79.40
2019-01-18T08:50:21.642Z,79.20
2019-01-18T08:52:50.228Z,78.80
2019-01-18T08:55:19.210Z,78.20
2019-01-18T08:57:47.866Z,78.60
2019-01-18T09:00:27.615Z,78.20
2019-01-18T09:02:56.418Z,79.80
2019-01-18T09:05:28.850Z,78.70
2019-01-18T09:07:57.730Z,79.90
2019-01-18T09:10:34.362Z,80.10
2019-01-18T09:13:02.946Z,80.00
2019-01-18T09:15:31.549Z,79.50
2019-01-18T09:18:00.238Z,80.00
2019-01-18T09:20:30.559Z,76.40
2019-01-18T09:22:59.346Z,74.80
2019-01-18T09:25:28.005Z,74.50
2019-01-18T09:27:56.797Z,70.60
2019-01-18T09:30:33.738Z,69.20
2019-01-18T09:33:03.730Z,70.40
2019-01-18T09:35:33.223Z,72.10
2019-01-18T09:38:03.018Z,73.50
2019-01-18T09:40:33.438Z,73.90
2019-01-18T09:43:01.991Z,73.50
2019-01-18T09:45:30.627Z,73.20
2019-01-18T09:47:59.310Z,73.20
2019-01-18T09:50:32.642Z,72.80
2019-01-18T09:53:02.839Z,75.20
2019-01-18T09:55:31.555Z,74.20
2019-01-18T09:58:00.167Z,73.20
2019-01-18T10:00:33.794Z,74.50
2019-01-18T10:03:02.479Z,72.30
2019-01-18T10:05:31.201Z,71.40
2019-01-18T10:07:59.814Z,69.70
2019-01-18T10:10:28.503Z,66.90
2019-01-18T10:12:57.086Z,65.60
2019-01-18T10:15:31.436Z,64.20
2019-01-18T10:18:00.761Z,64.20
2019-01-18T10:20:29.734Z,62.10
2019-01-18T10:22:58.578Z,61.20
2019-01-18T10:25:27.194Z,63.40
2019-01-18T10:27:55.852Z,62.70
2019-01-18T10:30:26.140Z,66.50
2019-01-18T10:32:54.794Z,69.50
2019-01-18T10:35:25.150Z,71.70
2019-01-18T10:37:53.737Z,70.80
2019-01-18T10:40:22.359Z,71.10
2019-01-18T10:42:51.082Z,69.60
2019-01-18T10:45:20.574Z,70.40
2019-01-18T10:47:50.194Z,70.10
2019-01-18T10:50:24.310Z,69.20
2019-01-18T10:52:53.054Z,68.90
2019-01-18T10:55:21.674Z,68.70
2019-01-18T10:57:50.250Z,67.40
2019-01-18T11:00:29.695Z,67.60
2019-01-18T11:02:58.398Z,61.10
2019-01-18T11:05:27.222Z,57.90
2019-01-18T11:07:55.720Z,61.80
2019-01-18T11:10:24.268Z,60.90
2019-01-18T11:12:52.996Z,62.50
2019-01-18T11:15:23.978Z,57.70
2019-01-18T11:17:52.482Z,55.00
2019-01-18T11:20:26.202Z,60.30
2019-01-18T11:22:56.432Z,63.10
2019-01-18T11:25:31.561Z,64.70
2019-01-18T11:27:55.277Z,63.90
2019-01-18T11:30:23.834Z,64.00
2019-01-18T11:32:52.423Z,62.40
2019-01-18T11:35:21.047Z,57.90
2019-01-18T11:37:49.703Z,56.00
2019-01-18T11:40:22.838Z,59.50
2019-01-18T11:42:51.758Z,57.70
2019-01-18T11:45:20.552Z,52.30
2019-01-18T11:47:49.381Z,55.10
2019-01-18T11:50:23.483Z,57.90
2019-01-18T11:52:52.058Z,58.60
2019-01-18T11:55:20.794Z,59.10
2019-01-18T11:57:49.534Z,59.50
2019-01-18T12:00:26.757Z,59.90
2019-01-18T12:02:55.342Z,58.70
2019-01-18T12:05:24.330Z,57.70
2019-01-18T12:07:53.651Z,58.70
2019-01-18T12:10:24.979Z,59.40
2019-01-18T12:12:53.522Z,59.50
2019-01-18T12:15:22.094Z,59.00
2019-01-18T12:17:50.709Z,59.30
2019-01-18T12:20:25.327Z,59.90
2019-01-18T12:22:54.012Z,58.00
2019-01-18T12:25:22.514Z,59.00
2019-01-18T12:27:51.069Z,59.70
2019-01-18T12:30:22.673Z,60.50
2019-01-18T12:32:51.338Z,61.30
2019-01-18T12:35:20.002Z,60.70
2019-01-18T12:37:48.550Z,60.80
2019-01-18T12:40:17.132Z,61.60
2019-01-18T12:42:45.925Z,61.00
2019-01-18T12:45:16.942Z,61.70
2019-01-18T12:47:45.503Z,61.30
2019-01-18T12:50:25.831Z,61.00
2019-01-18T12:52:54.445Z,61.90
2019-01-18T12:55:23.163Z,60.90
2019-01-18T12:57:51.846Z,59.40
2019-01-18T13:00:28.370Z,60.60
2019-01-18T13:02:57.355Z,62.20
2019-01-18T13:05:32.292Z,63.20
2019-01-18T13:08:00.837Z,63.50
2019-01-18T13:10:29.345Z,63.20
2019-01-18T13:12:57.820Z,65.20
2019-01-18T13:15:44.356Z,61.50
2019-01-18T13:18:12.907Z,60.90
2019-01-18T13:20:41.557Z,59.10
2019-01-18T13:23:10.195Z,51.50
2019-01-18T13:25:38.779Z,52.90
2019-01-18T13:28:07.327Z,51.40
2019-01-18T13:30:35.915Z,49.50
2019-01-18T13:33:04.807Z,47.20
2019-01-18T13:35:33.453Z,51.10
2019-01-18T13:38:02.069Z,57.10
2019-01-18T13:40:30.785Z,57.90
2019-01-18T13:42:59.436Z,56.40
2019-01-18T13:45:28.153Z,55.60
2019-01-18T13:47:56.631Z,51.80
2019-01-18T13:50:25.215Z,47.80
2019-01-18T13:52:53.765Z,48.20
2019-01-18T13:55:27.459Z,51.40
2019-01-18T13:57:56.252Z,49.80
2019-01-18T14:00:24.871Z,45.30
2019-01-18T14:02:54.601Z,42.90
2019-01-18T14:05:23.488Z,41.80
2019-01-18T14:07:53.543Z,42.20
2019-01-18T14:10:30.067Z,42.70
2019-01-18T14:12:58.715Z,45.50
2019-01-18T14:15:27.348Z,47.20
2019-01-18T14:17:55.916Z,45.50
2019-01-18T14:20:29.300Z,44.70
2019-01-18T14:22:58.028Z,46.50
2019-01-18T14:25:26.574Z,46.00
2019-01-18T14:27:55.228Z,45.70
2019-01-18T14:30:27.861Z,45.50
2019-01-18T14:32:56.504Z,45.70
2019-01-18T14:35:25.496Z,47.50
2019-01-18T14:37:54.230Z,47.30
2019-01-18T14:40:22.953Z,45.70
2019-01-18T14:42:55.489Z,46.10
2019-01-18T14:45:27.185Z,47.20
2019-01-18T14:47:55.700Z,45.00
2019-01-18T14:50:24.318Z,47.20
2019-01-18T14:52:53.641Z,45.10
2019-01-18T14:55:22.261Z,48.00
2019-01-18T14:57:50.912Z,47.60
2019-01-18T15:00:25.959Z,49.50
2019-01-18T15:02:54.611Z,51.70
2019-01-18T15:05:23.161Z,52.10
2019-01-18T15:07:51.747Z,54.10
2019-01-18T15:10:22.532Z,55.20
2019-01-18T15:12:56.763Z,57.10
2019-01-18T15:15:25.477Z,57.50
2019-01-18T15:17:53.987Z,57.00
2019-01-18T15:20:25.608Z,58.50
2019-01-18T15:22:54.559Z,59.10
2019-01-18T15:25:23.183Z,59.50
2019-01-18T15:27:51.831Z,61.20
2019-01-18T15:30:28.208Z,62.10
2019-01-18T15:32:56.793Z,62.30
2019-01-18T15:35:27.607Z,62.40
2019-01-18T15:37:56.505Z,63.20
2019-01-18T15:40:27.491Z,62.70
2019-01-18T15:42:58.916Z,63.40
2019-01-18T15:45:27.629Z,65.10
2019-01-18T15:47:56.311Z,64.30
2019-01-18T15:50:36.969Z,66.20
2019-01-18T15:53:06.273Z,65.50
2019-01-18T15:55:35.764Z,66.10
2019-01-18T15:58:05.485Z,65.70
2019-01-18T16:00:36.673Z,65.00
2019-01-18T16:03:05.618Z,65.80
2019-01-18T16:05:34.243Z,66.00
2019-01-18T16:08:02.931Z,66.50
2019-01-18T16:10:31.533Z,66.50
2019-01-18T16:13:00.155Z,66.40
2019-01-18T16:15:31.812Z,67.30
2019-01-18T16:18:00.872Z,68.50
2019-01-18T16:20:29.465Z,67.90
2019-01-18T16:22:58.020Z,68.20
2019-01-18T16:25:30.915Z,66.70
2019-01-18T16:27:59.751Z,66.10
2019-01-18T16:30:28.373Z,67.60
2019-01-18T16:32:57.775Z,68.00
2019-01-18T16:35:26.842Z,67.60
2019-01-18T16:37:55.865Z,67.70
2019-01-18T16:40:27.443Z,67.90
2019-01-18T16:43:11.074Z,68.80
2019-01-18T16:45:39.604Z,67.90
2019-01-18T16:48:08.390Z,67.70
2019-01-18T16:50:39.424Z,68.20
2019-01-18T16:53:07.905Z,68.40
2019-01-18T16:55:36.410Z,68.90
2019-01-18T16:58:05.113Z,68.40
2019-01-18T17:00:36.740Z,68.30
2019-01-18T17:03:05.367Z,67.30
2019-01-18T17:05:33.953Z,68.00
2019-01-18T17:08:02.453Z,68.70
2019-01-18T17:10:31.161Z,67.40
2019-01-18T17:12:59.705Z,68.00
2019-01-18T17:15:28.283Z,68.60
2019-01-18T17:17:56.837Z,67.30
2019-01-18T17:20:34.027Z,67.30
2019-01-18T17:23:02.583Z,68.70
2019-01-18T17:25:31.164Z,69.20
2019-01-18T17:27:59.857Z,69.00
2019-01-18T17:30:28.435Z,69.00
2019-01-18T17:32:56.987Z,67.10
2019-01-18T17:35:28.659Z,68.00
2019-01-18T17:38:03.261Z,68.40
2019-01-18T17:40:37.718Z,68.60
2019-01-18T17:43:21.487Z,69.30
2019-01-18T17:46:15.215Z,68.80
2019-01-18T17:49:02.289Z,69.50
2019-01-18T17:51:45.636Z,68.40
2019-01-18T17:54:22.537Z,66.50
2019-01-18T17:56:58.126Z,67.60
2019-01-18T17:59:46.589Z,66.80
2019-01-18T18:02:35.011Z,67.20
2019-01-18T18:05:15.849Z,67.90
2019-01-18T18:08:02.769Z,67.80
2019-01-18T18:10:37.133Z,68.50
2019-01-18T18:13:08.785Z,68.60
2019-01-18T18:15:46.323Z,68.40
2019-01-18T18:18:20.719Z,68.80
2019-01-18T18:21:01.091Z,69.50
2019-01-18T18:23:48.104Z,68.40
2019-01-18T18:26:14.937Z,68.30
2019-01-18T18:28:56.330Z,68.80
2019-01-18T18:31:38.551Z,70.70
2019-01-18T18:34:10.235Z,69.40
2019-01-18T18:36:54.033Z,68.50
2019-01-18T18:39:25.739Z,67.80
2019-01-18T18:42:28.164Z,68.60
2019-01-18T18:45:27.003Z,72.20
2019-01-18T18:48:10.493Z,70.20
2019-01-18T18:51:10.851Z,70.10
2019-01-18T18:54:06.996Z,69.40
2019-01-18T18:56:53.713Z,70.10
2019-01-18T18:59:49.321Z,68.50
2019-01-18T19:02:39.076Z,68.50
2019-01-18T19:05:29.991Z,68.40
2019-01-18T19:08:21.303Z,69.20
2019-01-18T19:10:56.039Z,68.70
2019-01-18T19:13:36.608Z,70.60
2019-01-18T19:16:14.010Z,71.00
2019-01-18T19:19:03.527Z,71.10
2019-01-18T19:21:47.163Z,71.60
2019-01-18T19:24:39.793Z,71.30
2019-01-18T19:27:14.321Z,70.70
2019-01-18T19:30:00.818Z,69.60
2019-01-18T19:32:38.189Z,69.10
2019-01-18T19:35:15.611Z,68.70
2019-01-18T19:38:19.107Z,68.50
2019-01-18T19:40:59.394Z,69.20
2019-01-18T19:43:46.287Z,69.80
2019-01-18T19:46:43.635Z,69.70
2019-01-18T19:49:27.441Z,70.10
2019-01-18T19:52:11.316Z,71.70
2019-01-18T19:54:42.959Z,70.40
2019-01-18T19:57:23.312Z,70.20
2019-01-18T20:00:07.983Z,69.70
2019-01-18T20:02:45.695Z,69.20
2019-01-18T20:05:23.295Z,69.40
2019-01-18T20:08:14.495Z,68.90
2019-01-18T20:10:55.192Z,67.60
2019-01-18T20:13:49.547Z,68.30
2019-01-18T20:16:39.180Z,68.90
2019-01-18T20:19:16.631Z,69.90
2019-01-18T20:22:01.267Z,70.40
2019-01-18T20:24:47.839Z,70.60
2019-01-18T20:27:22.048Z,71.10
2019-01-18T20:29:53.736Z,70.80
2019-01-18T20:32:37.013Z,71.10
2019-01-18T20:35:16.951Z,70.80
2019-01-18T20:38:07.417Z,71.00
2019-01-18T20:40:55.966Z,71.10
2019-01-18T20:43:33.597Z,70.90
2019-01-18T20:46:08.245Z,70.70
2019-01-18T20:48:48.630Z,69.80
2019-01-18T20:51:35.155Z,70.10
2019-01-18T20:54:12.759Z,69.60
2019-01-18T20:57:01.009Z,69.80
2019-01-18T20:59:47.811Z,69.20
2019-01-18T21:02:25.441Z,69.90
2019-01-18T21:05:00.226Z,69.90
2019-01-18T21:07:31.925Z,69.90
2019-01-18T21:10:05.248Z,70.20
2019-01-18T21:12:59.865Z,70.60
2019-01-18T21:15:34.058Z,71.10
2019-01-18T21:18:42.175Z,71.20
2019-01-18T21:21:22.911Z,72.30
2019-01-18T21:24:33.607Z,72.80
2019-01-18T21:26:59.039Z,72.10
2019-01-18T21:29:50.143Z,72.70
2019-01-18T21:32:47.705Z,73.90
2019-01-18T21:35:38.334Z,73.00
2019-01-18T21:38:26.555Z,73.20
2019-01-18T21:40:58.309Z,71.60
2019-01-18T21:43:35.614Z,71.50
2019-01-18T21:46:19.372Z,70.70
2019-01-18T21:48:53.719Z,72.30
2019-01-18T21:51:41.695Z,73.00
2019-01-18T21:54:13.443Z,71.90
2019-01-18T21:56:47.730Z,70.30
2019-01-18T21:59:22.175Z,70.70
2019-01-18T22:01:56.830Z,71.50
2019-01-18T22:04:28.560Z,72.30
2019-01-18T22:07:09.057Z,72.30
2019-01-18T22:09:40.702Z,71.40
2019-01-18T22:12:24.197Z,72.30
2019-01-18T22:15:04.148Z,74.20
2019-01-18T22:17:47.543Z,74.60
2019-01-18T22:20:37.335Z,74.40
2019-01-18T22:23:11.689Z,75.90
2019-01-18T22:25:55.174Z,74.70
2019-01-18T22:28:38.635Z,73.80
2019-01-18T22:31:15.888Z,73.40
2019-01-18T22:33:56.137Z,74.30
2019-01-18T22:37:04.631Z,74.50
2019-01-18T22:39:42.414Z,74.40
2019-01-18T22:42:19.809Z,76.10
2019-01-18T22:45:03.267Z,76.50
2019-01-18T22:47:50.083Z,76.80
2019-01-18T22:50:27.413Z,76.40
2019-01-18T22:53:21.823Z,75.80
2019-01-18T22:55:59.124Z,76.00
2019-01-18T22:58:50.150Z,76.40
2019-01-18T23:01:56.725Z,75.90
2019-01-18T23:04:34.018Z,75.60
2019-01-18T23:07:17.403Z,74.30
2019-01-18T23:10:01.116Z,75.40
2019-01-18T23:12:52.091Z,75.50
2019-01-18T23:15:41.967Z,75.20
2019-01-18T23:18:28.535Z,74.40
2019-01-18T23:21:02.821Z,74.30
2019-01-18T23:23:43.205Z,74.00
2019-01-18T23:26:17.482Z,74.00
2019-01-18T23:29:16.539Z,74.30
2019-01-18T23:32:06.227Z,74.60
2019-01-18T23:34:46.531Z,72.90
2019-01-18T23:37:26.767Z,73.60
2019-01-18T23:40:04.349Z,73.30
2019-01-18T23:42:41.833Z,73.70
2019-01-18T23:45:28.062Z,73.70
2019-01-18T23:48:05.545Z,72.60
2019-01-18T23:50:39.890Z,73.50
2019-01-18T23:53:20.427Z,73.60
2019-01-18T23:56:01.191Z,73.50
2019-01-18T23:58:50.796Z,73.60
